createdAt,value
2018-07-26T00:01:38.957Z,19.27
2018-07-26T00:04:05.262Z,19.29
2018-07-26T00:06:31.576Z,19.36
2018-07-26T00:08:57.883Z,19.31
2018-07-26T00:11:24.196Z,19.28
2018-07-26T00:13:50.507Z,19.30
2018-07-26T00:16:16.815Z,19.38
2018-07-26T00:18:43.118Z,19.41
2018-07-26T00:21:09.453Z,19.34
2018-07-26T00:23:35.742Z,19.31
2018-07-26T00:26:02.046Z,19.34
2018-07-26T00:28:28.361Z,19.31
2018-07-26T00:30:54.662Z,19.29
2018-07-26T00:33:20.970Z,19.25
2018-07-26T00:35:47.284Z,19.18
2018-07-26T00:38:13.601Z,19.14
2018-07-26T00:40:39.919Z,19.10
2018-07-26T00:43:06.228Z,19.10
2018-07-26T00:45:32.543Z,19.08
2018-07-26T00:47:58.895Z,19.06
2018-07-26T00:50:25.204Z,19.09
2018-07-26T00:52:51.521Z,19.11
2018-07-26T00:55:17.838Z,19.14
2018-07-26T00:57:44.156Z,19.09
2018-07-26T01:00:10.501Z,19.11
2018-07-26T01:02:36.817Z,19.17
2018-07-26T01:05:03.142Z,19.18
2018-07-26T01:07:29.505Z,19.20
2018-07-26T01:09:55.822Z,19.21
2018-07-26T01:12:22.134Z,19.24
2018-07-26T01:14:48.445Z,19.26
2018-07-26T01:17:14.797Z,19.25
2018-07-26T01:19:41.103Z,19.26
2018-07-26T01:22:07.461Z,19.27
2018-07-26T01:24:33.767Z,19.29
2018-07-26T01:27:00.076Z,19.32
2018-07-26T01:29:26.394Z,19.32
2018-07-26T01:31:52.710Z,19.33
2018-07-26T01:34:19.020Z,19.34
2018-07-26T01:36:45.335Z,19.34
2018-07-26T01:39:11.650Z,19.37
2018-07-26T01:41:37.976Z,19.41
2018-07-26T01:44:04.290Z,19.43
2018-07-26T01:46:30.599Z,19.44
2018-07-26T01:48:56.906Z,19.47
2018-07-26T01:51:23.218Z,19.46
2018-07-26T01:53:49.537Z,19.53
2018-07-26T01:56:15.863Z,19.53
2018-07-26T01:58:42.178Z,19.52
2018-07-26T02:01:08.489Z,19.50
2018-07-26T02:03:34.808Z,19.47
2018-07-26T02:06:01.132Z,19.47
2018-07-26T02:08:27.450Z,19.45
2018-07-26T02:10:53.763Z,19.40
2018-07-26T02:13:20.077Z,19.35
2018-07-26T02:15:46.384Z,19.31
2018-07-26T02:18:12.701Z,19.28
2018-07-26T02:20:39.016Z,19.03
2018-07-26T02:23:05.347Z,18.83
2018-07-26T02:25:31.658Z,18.57
2018-07-26T02:27:57.968Z,18.39
2018-07-26T02:30:24.282Z,18.33
2018-07-26T02:32:50.605Z,18.25
2018-07-26T02:35:16.920Z,18.16
2018-07-26T02:37:43.233Z,18.05
2018-07-26T02:40:09.549Z,17.94
2018-07-26T02:42:35.865Z,17.86
2018-07-26T02:45:02.173Z,17.72
2018-07-26T02:47:28.497Z,17.62
2018-07-26T02:49:54.801Z,17.59
2018-07-26T02:52:21.109Z,17.53
2018-07-26T02:54:47.420Z,17.42
2018-07-26T02:57:13.737Z,17.41
2018-07-26T02:59:40.052Z,17.33
2018-07-26T03:02:06.371Z,17.37
2018-07-26T03:04:32.682Z,17.45
2018-07-26T03:06:58.991Z,17.53
2018-07-26T03:09:25.310Z,17.55
2018-07-26T03:11:51.617Z,17.55
2018-07-26T03:14:17.970Z,17.52
2018-07-26T03:16:44.290Z,17.61
2018-07-26T03:19:10.603Z,17.62
2018-07-26T03:21:36.923Z,17.64
2018-07-26T03:24:03.236Z,17.65
2018-07-26T03:26:29.546Z,17.70
2018-07-26T03:28:55.856Z,17.69
2018-07-26T03:31:22.166Z,17.68
2018-07-26T03:33:48.472Z,17.66
2018-07-26T03:36:14.791Z,17.65
2018-07-26T03:38:41.104Z,17.66
2018-07-26T03:41:07.451Z,17.74
2018-07-26T03:43:33.817Z,17.76
2018-07-26T03:46:00.078Z,17.72
2018-07-26T03:48:26.389Z,17.78
2018-07-26T03:50:52.707Z,17.91
2018-07-26T03:53:19.022Z,18.01
2018-07-26T03:55:45.340Z,18.05
2018-07-26T03:58:11.654Z,18.12
2018-07-26T04:00:37.975Z,18.21
2018-07-26T04:03:04.283Z,18.27
2018-07-26T04:05:30.611Z,18.34
2018-07-26T04:07:56.955Z,18.39
2018-07-26T04:10:23.263Z,18.42
2018-07-26T04:12:49.581Z,18.45
2018-07-26T04:15:15.896Z,18.43
2018-07-26T04:17:42.208Z,18.42
2018-07-26T04:20:08.551Z,18.39
2018-07-26T04:22:34.829Z,18.37
2018-07-26T04:25:01.145Z,18.39
2018-07-26T04:27:27.452Z,18.45
2018-07-26T04:29:53.760Z,18.52
2018-07-26T04:32:20.075Z,18.48
2018-07-26T04:34:46.389Z,18.51
2018-07-26T04:37:12.719Z,18.57
2018-07-26T04:39:39.024Z,18.65
2018-07-26T04:42:05.333Z,18.76
2018-07-26T04:44:31.649Z,18.80
2018-07-26T04:46:57.960Z,18.90
2018-07-26T04:49:24.270Z,18.99
2018-07-26T04:51:50.580Z,19.03
2018-07-26T04:54:16.901Z,19.07
2018-07-26T04:56:43.249Z,19.18
2018-07-26T04:59:09.569Z,19.34
2018-07-26T05:01:35.894Z,19.49
2018-07-26T05:04:02.220Z,19.54
2018-07-26T05:06:28.523Z,19.62
2018-07-26T05:08:54.837Z,19.63
2018-07-26T05:11:21.193Z,19.67
2018-07-26T05:13:47.500Z,19.73
2018-07-26T05:16:13.824Z,19.94
2018-07-26T05:18:40.144Z,20.46
2018-07-26T05:21:06.464Z,20.77
2018-07-26T05:23:32.816Z,20.77
2018-07-26T05:25:59.125Z,20.90
2018-07-26T05:28:25.445Z,21.48
2018-07-26T05:30:51.761Z,22.65
2018-07-26T05:33:18.114Z,23.78
2018-07-26T05:35:44.432Z,24.63
2018-07-26T05:38:10.754Z,24.35
2018-07-26T05:40:37.064Z,24.22
2018-07-26T05:43:03.383Z,24.72
2018-07-26T05:45:29.753Z,25.46
2018-07-26T05:47:56.063Z,25.14
2018-07-26T05:50:22.378Z,23.90
2018-07-26T05:52:48.691Z,23.22
2018-07-26T05:55:15.008Z,23.48
2018-07-26T05:57:41.372Z,23.56
2018-07-26T06:00:07.708Z,23.10
2018-07-26T06:02:34.003Z,23.49
2018-07-26T06:05:00.319Z,23.36
2018-07-26T06:07:26.672Z,23.56
2018-07-26T06:09:52.991Z,23.49
2018-07-26T06:12:19.309Z,23.18
2018-07-26T06:14:45.627Z,23.50
2018-07-26T06:17:11.986Z,23.49
2018-07-26T06:19:38.260Z,23.49
2018-07-26T06:22:04.613Z,24.22
2018-07-26T06:24:30.925Z,24.41
2018-07-26T06:26:57.284Z,23.93
2018-07-26T06:29:23.596Z,23.73
2018-07-26T06:31:49.913Z,25.44
2018-07-26T06:34:16.267Z,26.04
2018-07-26T06:36:42.576Z,27.06
2018-07-26T06:39:08.889Z,26.89
2018-07-26T06:41:35.259Z,27.26
2018-07-26T06:44:01.573Z,27.66
2018-07-26T06:46:27.908Z,27.52
2018-07-26T06:48:54.228Z,27.84
2018-07-26T06:51:20.549Z,27.48
2018-07-26T06:53:46.867Z,28.17
2018-07-26T06:56:13.196Z,28.80
2018-07-26T06:58:39.508Z,29.08
2018-07-26T07:01:05.820Z,28.56
2018-07-26T07:03:32.133Z,28.78
2018-07-26T07:05:58.487Z,29.13
2018-07-26T07:08:24.806Z,29.61
2018-07-26T07:10:51.169Z,29.72
2018-07-26T07:13:17.476Z,28.75
2018-07-26T07:15:43.793Z,27.88
2018-07-26T07:18:10.114Z,27.16
2018-07-26T07:20:36.469Z,26.41
2018-07-26T07:23:02.745Z,26.85
2018-07-26T07:25:29.066Z,27.29
2018-07-26T07:27:55.478Z,28.30
2018-07-26T07:30:21.705Z,28.32
2018-07-26T07:32:48.017Z,27.65
2018-07-26T07:35:14.339Z,27.33
2018-07-26T07:37:40.656Z,26.50
2018-07-26T07:40:06.976Z,26.51
2018-07-26T07:42:33.304Z,26.83
2018-07-26T07:44:59.625Z,28.12
2018-07-26T07:47:26.115Z,28.72
2018-07-26T07:49:52.257Z,29.52
2018-07-26T07:52:18.585Z,28.91
2018-07-26T07:54:44.901Z,28.14
2018-07-26T07:57:11.223Z,27.98
2018-07-26T07:59:37.608Z,28.11
2018-07-26T08:02:03.861Z,28.87
2018-07-26T08:04:30.176Z,28.57
2018-07-26T08:06:56.494Z,29.15
2018-07-26T08:09:22.812Z,29.85
2018-07-26T08:11:49.137Z,30.43
2018-07-26T08:14:15.484Z,30.81
2018-07-26T08:16:41.840Z,30.39
2018-07-26T08:19:08.198Z,29.84
2018-07-26T08:21:34.523Z,30.30
2018-07-26T08:24:00.840Z,30.52
2018-07-26T08:26:27.192Z,30.22
2018-07-26T08:28:53.495Z,30.56
2018-07-26T08:31:19.815Z,30.71
2018-07-26T08:33:46.127Z,31.07
2018-07-26T08:36:12.448Z,29.98
2018-07-26T08:38:38.765Z,30.52
2018-07-26T08:41:05.171Z,30.75
2018-07-26T08:43:31.449Z,28.99
2018-07-26T08:45:57.754Z,28.21
2018-07-26T08:48:24.074Z,27.66
2018-07-26T08:50:50.420Z,28.73
2018-07-26T08:53:16.734Z,29.95
2018-07-26T08:55:43.051Z,30.54
2018-07-26T08:58:09.407Z,30.62
2018-07-26T09:00:35.712Z,30.83
2018-07-26T09:03:02.029Z,30.87
2018-07-26T09:05:28.338Z,30.69
2018-07-26T09:07:54.662Z,29.38
2018-07-26T09:10:21.063Z,28.32
2018-07-26T09:12:47.369Z,27.84
2018-07-26T09:15:13.681Z,28.42
2018-07-26T09:17:39.996Z,29.83
2018-07-26T09:20:06.319Z,30.67
2018-07-26T09:22:32.632Z,31.33
2018-07-26T09:24:58.943Z,30.70
2018-07-26T09:27:25.258Z,28.76
2018-07-26T09:29:51.598Z,28.02
2018-07-26T09:32:17.921Z,27.96
2018-07-26T09:34:44.239Z,28.61
2018-07-26T09:37:10.552Z,28.16
2018-07-26T09:39:36.916Z,27.73
2018-07-26T09:42:03.187Z,27.39
2018-07-26T09:44:29.492Z,28.37
2018-07-26T09:46:55.809Z,29.91
2018-07-26T09:49:22.132Z,31.15
2018-07-26T09:51:48.456Z,31.63
2018-07-26T09:54:14.755Z,31.51
2018-07-26T09:56:41.072Z,31.34
2018-07-26T09:59:07.379Z,29.62
2018-07-26T10:01:33.702Z,29.89
2018-07-26T10:04:00.009Z,30.96
2018-07-26T10:06:26.323Z,31.70
2018-07-26T10:08:52.643Z,32.15
2018-07-26T10:11:18.963Z,31.08
2018-07-26T10:13:45.278Z,29.98
2018-07-26T10:16:11.598Z,29.57
2018-07-26T10:18:37.903Z,29.10
2018-07-26T10:21:04.219Z,28.75
2018-07-26T10:23:30.576Z,29.12
2018-07-26T10:25:56.890Z,28.86
2018-07-26T10:28:23.195Z,29.88
2018-07-26T10:30:49.503Z,31.19
2018-07-26T10:33:15.828Z,31.74
2018-07-26T10:35:42.142Z,31.48
2018-07-26T10:38:08.480Z,32.11
2018-07-26T10:40:34.804Z,32.91
2018-07-26T10:43:01.111Z,32.95
2018-07-26T10:45:27.415Z,32.53
2018-07-26T10:47:53.733Z,32.20
2018-07-26T10:50:20.089Z,30.99
2018-07-26T10:52:46.403Z,31.00
2018-07-26T10:55:12.711Z,31.46
2018-07-26T10:57:39.043Z,32.18
2018-07-26T11:00:05.356Z,32.61
2018-07-26T11:02:31.723Z,32.27
2018-07-26T11:04:58.042Z,31.97
2018-07-26T11:07:24.349Z,32.02
2018-07-26T11:09:50.681Z,31.91
2018-07-26T11:12:17.001Z,31.57
2018-07-26T11:14:43.312Z,31.41
2018-07-26T11:17:09.655Z,30.71
2018-07-26T11:19:35.964Z,30.17
2018-07-26T11:22:02.278Z,29.64
2018-07-26T11:24:28.587Z,29.17
2018-07-26T11:26:54.900Z,29.06
2018-07-26T11:29:21.219Z,28.58
2018-07-26T11:31:47.533Z,28.16
2018-07-26T11:34:13.851Z,27.88
2018-07-26T11:36:40.159Z,28.79
2018-07-26T11:39:06.474Z,29.16
2018-07-26T11:41:32.807Z,29.11
2018-07-26T11:43:59.088Z,29.23
2018-07-26T11:46:25.407Z,30.14
2018-07-26T11:48:51.721Z,30.08
2018-07-26T11:51:18.028Z,29.65
2018-07-26T11:53:44.343Z,28.85
2018-07-26T11:56:10.665Z,28.06
2018-07-26T11:58:36.980Z,27.31
2018-07-26T12:01:03.292Z,27.00
2018-07-26T12:03:29.608Z,26.90
2018-07-26T12:05:55.920Z,26.71
2018-07-26T12:08:22.236Z,26.62
2018-07-26T12:10:48.545Z,26.49
2018-07-26T12:13:14.856Z,26.50
2018-07-26T12:15:41.175Z,26.70
2018-07-26T12:18:07.484Z,26.68
2018-07-26T12:20:33.796Z,26.71
2018-07-26T12:23:00.127Z,26.72
2018-07-26T12:25:26.432Z,26.77
2018-07-26T12:27:52.739Z,26.81
2018-07-26T12:30:19.088Z,27.03
2018-07-26T12:32:45.400Z,27.27
2018-07-26T12:35:11.730Z,27.59
2018-07-26T12:37:38.040Z,27.62
2018-07-26T12:40:04.351Z,27.55
2018-07-26T12:42:30.661Z,27.35
2018-07-26T12:44:56.972Z,27.19
2018-07-26T12:47:23.293Z,26.91
2018-07-26T12:49:49.591Z,26.61
2018-07-26T12:52:15.904Z,26.62
2018-07-26T12:54:42.257Z,26.77
2018-07-26T12:57:08.520Z,26.74
2018-07-26T12:59:34.825Z,26.81
2018-07-26T13:02:01.156Z,26.85
2018-07-26T13:04:27.467Z,26.93
2018-07-26T13:06:53.815Z,26.97
2018-07-26T13:09:20.124Z,26.95
2018-07-26T13:11:46.437Z,26.92
2018-07-26T13:14:12.751Z,26.90
2018-07-26T13:16:39.059Z,27.01
2018-07-26T13:19:05.419Z,26.93
2018-07-26T13:21:31.729Z,26.94
2018-07-26T13:23:58.039Z,26.88
2018-07-26T13:26:24.346Z,26.97
2018-07-26T13:28:50.651Z,26.85
2018-07-26T13:31:16.967Z,26.93
2018-07-26T13:33:43.274Z,27.02
2018-07-26T13:36:09.660Z,27.11
2018-07-26T13:38:35.938Z,27.22
2018-07-26T13:41:02.241Z,27.23
2018-07-26T13:43:28.548Z,27.06
2018-07-26T13:45:54.870Z,26.86
2018-07-26T13:48:21.192Z,26.82
2018-07-26T13:50:47.557Z,26.78
2018-07-26T13:53:13.915Z,26.91
2018-07-26T13:55:40.228Z,26.97
2018-07-26T13:58:06.535Z,26.74
2018-07-26T14:00:32.953Z,26.59
2018-07-26T14:02:59.340Z,26.55
2018-07-26T14:05:25.789Z,26.41
2018-07-26T14:07:54.035Z,26.26
2018-07-26T14:10:18.484Z,26.04
2018-07-26T14:12:44.818Z,25.91
2018-07-26T14:15:11.108Z,25.99
2018-07-26T14:17:37.428Z,25.95
2018-07-26T14:20:03.744Z,25.85
2018-07-26T14:22:30.093Z,25.95
2018-07-26T14:24:56.384Z,26.04
2018-07-26T14:27:22.700Z,26.06
2018-07-26T14:29:49.054Z,26.20
2018-07-26T14:32:15.341Z,26.35
2018-07-26T14:34:41.656Z,26.42
2018-07-26T14:37:07.973Z,26.47
2018-07-26T14:39:34.296Z,26.50
2018-07-26T14:42:00.596Z,26.55
2018-07-26T14:44:26.917Z,26.61
2018-07-26T14:46:53.228Z,26.58
2018-07-26T14:49:19.558Z,26.55
2018-07-26T14:51:45.896Z,26.36
2018-07-26T14:54:12.203Z,26.26
2018-07-26T14:56:38.573Z,26.26
2018-07-26T14:59:04.879Z,26.30
2018-07-26T15:01:31.197Z,26.25
2018-07-26T15:03:57.518Z,26.22
2018-07-26T15:06:23.844Z,26.23
2018-07-26T15:08:50.208Z,26.29
2018-07-26T15:11:16.498Z,26.32
2018-07-26T15:13:42.803Z,26.33
2018-07-26T15:16:09.121Z,26.38
2018-07-26T15:18:35.436Z,26.38
2018-07-26T15:21:01.772Z,26.45
2018-07-26T15:23:28.104Z,26.50
2018-07-26T15:25:54.417Z,26.51
2018-07-26T15:28:20.736Z,26.40
2018-07-26T15:30:47.085Z,26.32
2018-07-26T15:33:13.377Z,26.05
2018-07-26T15:35:39.688Z,25.92
2018-07-26T15:38:06.005Z,25.82
2018-07-26T15:40:32.310Z,25.76
2018-07-26T15:42:58.620Z,25.77
2018-07-26T15:45:24.953Z,25.62
2018-07-26T15:47:51.276Z,25.37
2018-07-26T15:50:17.597Z,25.23
2018-07-26T15:52:43.904Z,25.23
2018-07-26T15:55:10.216Z,25.19
2018-07-26T15:57:36.533Z,25.18
2018-07-26T16:00:04.668Z,25.20
2018-07-26T16:02:30.976Z,25.09
2018-07-26T16:04:57.307Z,25.04
2018-07-26T16:07:23.635Z,24.91
2018-07-26T16:09:49.967Z,24.82
2018-07-26T16:12:16.333Z,24.85
2018-07-26T16:14:42.588Z,24.84
2018-07-26T16:17:08.914Z,24.87
2018-07-26T16:19:35.242Z,24.89
2018-07-26T16:22:01.605Z,24.86
2018-07-26T16:24:27.878Z,24.90
2018-07-26T16:26:54.212Z,24.92
2018-07-26T16:29:20.529Z,24.95
2018-07-26T16:31:46.841Z,24.93
2018-07-26T16:34:13.157Z,24.93
2018-07-26T16:36:39.463Z,24.93
2018-07-26T16:39:05.776Z,25.00
2018-07-26T16:41:32.109Z,25.02
2018-07-26T16:43:58.446Z,25.00
2018-07-26T16:46:24.759Z,24.96
2018-07-26T16:48:51.110Z,24.95
2018-07-26T16:51:17.428Z,24.91
2018-07-26T16:53:43.755Z,24.94
2018-07-26T16:56:10.081Z,24.87
2018-07-26T16:58:36.527Z,24.85
2018-07-26T17:01:02.698Z,24.76
2018-07-26T17:03:29.006Z,24.72
2018-07-26T17:05:55.319Z,24.66
2018-07-26T17:08:21.626Z,24.64
2018-07-26T17:10:47.944Z,24.67
2018-07-26T17:13:14.278Z,24.69
2018-07-26T17:15:40.583Z,24.59
2018-07-26T17:18:06.891Z,24.54
2018-07-26T17:20:33.218Z,24.47
2018-07-26T17:22:59.550Z,24.44
2018-07-26T17:25:25.877Z,24.40
2018-07-26T17:27:52.230Z,24.39
2018-07-26T17:30:18.560Z,24.39
2018-07-26T17:32:44.947Z,24.44
2018-07-26T17:35:11.295Z,24.24
2018-07-26T17:37:37.641Z,24.13
2018-07-26T17:40:04.000Z,23.88
2018-07-26T17:42:30.303Z,23.71
2018-07-26T17:44:56.683Z,23.51
2018-07-26T17:47:22.958Z,23.39
2018-07-26T17:49:49.274Z,23.20
2018-07-26T17:52:15.584Z,23.05
2018-07-26T17:54:41.939Z,23.00
2018-07-26T17:57:08.267Z,22.91
2018-07-26T17:59:34.591Z,22.84
2018-07-26T18:02:00.928Z,22.81
2018-07-26T18:04:27.314Z,22.83
2018-07-26T18:06:53.625Z,22.73
2018-07-26T18:09:19.937Z,22.66
2018-07-26T18:11:46.273Z,22.71
2018-07-26T18:14:15.340Z,22.78
2018-07-26T18:16:41.652Z,22.73
2018-07-26T18:19:07.968Z,22.70
2018-07-26T18:21:34.345Z,22.63
2018-07-26T18:24:00.651Z,22.47
2018-07-26T18:26:27.000Z,22.44
2018-07-26T18:28:53.312Z,22.55
2018-07-26T18:31:19.645Z,22.55
2018-07-26T18:33:45.947Z,22.59
2018-07-26T18:36:12.282Z,22.58
2018-07-26T18:38:38.612Z,22.53
2018-07-26T18:41:04.924Z,22.40
2018-07-26T18:43:31.287Z,22.40
2018-07-26T18:45:57.614Z,22.41
2018-07-26T18:48:23.942Z,22.42
2018-07-26T18:50:50.257Z,22.44
2018-07-26T18:53:16.574Z,22.35
2018-07-26T18:55:42.880Z,22.43
2018-07-26T18:58:09.188Z,22.49
2018-07-26T19:00:35.515Z,22.37
2018-07-26T19:03:01.818Z,22.26
2018-07-26T19:05:28.149Z,22.14
2018-07-26T19:07:54.455Z,22.02
2018-07-26T19:10:20.782Z,21.96
2018-07-26T19:12:47.088Z,21.89
2018-07-26T19:15:13.400Z,21.84
2018-07-26T19:17:39.714Z,21.83
2018-07-26T19:20:06.043Z,21.85
2018-07-26T19:22:32.362Z,21.83
2018-07-26T19:24:58.729Z,21.79
2018-07-26T19:27:25.060Z,21.79
2018-07-26T19:29:51.376Z,21.75
2018-07-26T19:32:17.701Z,21.72
2018-07-26T19:34:44.016Z,21.63
2018-07-26T19:37:10.350Z,21.55
2018-07-26T19:39:36.700Z,21.53
2018-07-26T19:42:03.051Z,21.57
2018-07-26T19:44:29.402Z,21.55
2018-07-26T19:46:55.730Z,21.58
2018-07-26T19:49:22.067Z,21.57
2018-07-26T19:51:48.397Z,21.57
2018-07-26T19:54:14.769Z,21.60
2018-07-26T19:56:41.090Z,21.57
2018-07-26T19:59:07.418Z,21.47
2018-07-26T20:01:33.747Z,21.49
2018-07-26T20:04:00.137Z,21.50
2018-07-26T20:06:26.364Z,21.49
2018-07-26T20:08:52.685Z,21.45
2018-07-26T20:11:18.996Z,21.48
2018-07-26T20:13:45.344Z,21.46
2018-07-26T20:16:11.707Z,21.44
2018-07-26T20:18:38.016Z,21.38
2018-07-26T20:21:04.379Z,21.36
2018-07-26T20:23:30.722Z,21.33
2018-07-26T20:25:57.042Z,21.31
2018-07-26T20:28:23.349Z,21.29
2018-07-26T20:30:49.658Z,21.33
2018-07-26T20:33:15.967Z,21.40
2018-07-26T20:35:42.294Z,21.43
2018-07-26T20:38:08.622Z,21.42
2018-07-26T20:40:34.961Z,21.37
2018-07-26T20:43:01.260Z,21.35
2018-07-26T20:45:27.581Z,21.34
2018-07-26T20:47:53.886Z,21.32
2018-07-26T20:50:20.207Z,21.22
2018-07-26T20:52:46.529Z,21.23
2018-07-26T20:55:12.838Z,21.22
2018-07-26T20:57:39.147Z,21.21
2018-07-26T21:00:05.475Z,21.25
2018-07-26T21:02:31.801Z,21.22
2018-07-26T21:04:58.121Z,21.20
2018-07-26T21:07:24.425Z,21.15
2018-07-26T21:09:50.745Z,21.15
2018-07-26T21:12:17.050Z,21.12
2018-07-26T21:14:43.355Z,21.09
2018-07-26T21:17:09.675Z,21.05
2018-07-26T21:19:35.987Z,21.08
2018-07-26T21:22:02.302Z,21.06
2018-07-26T21:24:28.638Z,21.03
2018-07-26T21:26:54.959Z,20.99
2018-07-26T21:29:21.258Z,20.91
2018-07-26T21:31:47.633Z,20.91
2018-07-26T21:34:13.878Z,20.91
2018-07-26T21:36:40.198Z,20.77
2018-07-26T21:39:06.497Z,20.68
2018-07-26T21:41:32.809Z,20.66
2018-07-26T21:43:59.121Z,20.79
2018-07-26T21:46:25.465Z,20.84
2018-07-26T21:48:51.771Z,20.81
2018-07-26T21:51:18.074Z,20.83
2018-07-26T21:53:44.429Z,20.83
2018-07-26T21:56:10.738Z,20.78
2018-07-26T21:58:37.049Z,20.75
2018-07-26T22:01:03.401Z,20.70
2018-07-26T22:03:29.714Z,20.60
2018-07-26T22:05:56.065Z,20.47
2018-07-26T22:08:22.373Z,20.49
2018-07-26T22:10:48.681Z,20.65
2018-07-26T22:13:14.999Z,20.69
2018-07-26T22:15:41.342Z,20.55
2018-07-26T22:18:07.651Z,20.47
2018-07-26T22:20:33.953Z,20.45
2018-07-26T22:23:00.262Z,20.40
2018-07-26T22:25:26.566Z,20.28
2018-07-26T22:27:52.874Z,20.30
2018-07-26T22:30:19.179Z,20.28
2018-07-26T22:32:45.487Z,20.31
2018-07-26T22:35:11.791Z,20.33
2018-07-26T22:37:38.105Z,20.32
2018-07-26T22:40:04.411Z,20.28
2018-07-26T22:42:30.717Z,20.26
2018-07-26T22:44:57.061Z,20.28
2018-07-26T22:47:23.366Z,20.21
2018-07-26T22:49:49.675Z,20.28
2018-07-26T22:52:15.986Z,20.26
2018-07-26T22:54:42.283Z,20.20
2018-07-26T22:57:08.594Z,20.18
2018-07-26T22:59:34.893Z,20.17
2018-07-26T23:02:01.203Z,20.16
2018-07-26T23:04:27.559Z,20.24
2018-07-26T23:06:53.853Z,20.36
2018-07-26T23:09:20.157Z,20.40
2018-07-26T23:11:46.504Z,20.33
2018-07-26T23:14:12.855Z,20.26
2018-07-26T23:16:39.162Z,20.13
2018-07-26T23:19:05.513Z,19.96
2018-07-26T23:21:31.823Z,19.90
2018-07-26T23:23:58.133Z,19.79
2018-07-26T23:26:24.448Z,19.68
2018-07-26T23:28:50.750Z,19.56
2018-07-26T23:31:17.065Z,19.53
2018-07-26T23:33:43.377Z,19.63
2018-07-26T23:36:09.688Z,19.69
2018-07-26T23:38:36.004Z,19.82
2018-07-26T23:41:02.310Z,19.82
2018-07-26T23:43:28.620Z,19.52
2018-07-26T23:45:54.933Z,19.38
2018-07-26T23:48:21.244Z,19.26
2018-07-26T23:50:47.561Z,19.17
2018-07-26T23:53:13.874Z,19.12
2018-07-26T23:55:40.183Z,19.23
2018-07-26T23:58:06.497Z,19.19
